Time;durP1;ratioP1;P1;durP2;ratioP2;P2;SDS_P1;SDS_P2;PMS_P1;PMS_P2;Temp;Humidity;BMP_temperature;BMP_pressure;BME280_temperature;BME280_humidity;BME280_pressure;Samples;Min_cycle;Max_cycle;Signal;HPM_P1;HPM_P2
2024/01/29 00:01:01;;;;;;;6.95;4.05;;;5.00;47.70;;;;;;5033774;28;20025;-84
2024/01/29 00:03:27;;;;;;;6.90;3.33;;;5.00;47.60;;;;;;5033873;28;20394;-83
2024/01/29 00:05:52;;;;;;;5.70;3.92;;;5.00;47.60;;;;;;5032897;28;20096;-84
2024/01/29 00:08:18;;;;;;;5.57;3.55;;;5.00;47.30;;;;;;5033711;28;20045;-83
2024/01/29 00:10:43;;;;;;;5.10;3.83;;;5.00;47.60;;;;;;5033670;28;20029;-83
2024/01/29 00:13:09;;;;;;;7.93;3.85;;;4.90;47.70;;;;;;5033629;28;20100;-83
2024/01/29 00:15:34;;;;;;;5.20;3.70;;;4.90;47.60;;;;;;5033433;28;20030;-82
2024/01/29 00:18:00;;;;;;;5.80;3.10;;;4.90;47.10;;;;;;5033677;28;20467;-82
2024/01/29 00:20:26;;;;;;;6.95;3.03;;;4.90;47.30;;;;;;5034128;28;20025;-82
2024/01/29 00:22:51;;;;;;;5.75;3.67;;;4.90;47.10;;;;;;5035126;28;20426;-81
2024/01/29 00:25:17;;;;;;;5.53;3.13;;;4.90;47.60;;;;;;5036021;28;20045;-83
2024/01/29 00:27:43;;;;;;;3.88;2.63;;;4.90;47.40;;;;;;5037664;28;20028;-84
2024/01/29 00:30:09;;;;;;;5.57;3.22;;;4.90;47.40;;;;;;5018799;28;20034;-84
2024/01/29 00:32:34;;;;;;;4.63;2.65;;;4.90;47.10;;;;;;5033896;28;20052;-84
2024/01/29 00:35:00;;;;;;;4.32;3.22;;;4.90;47.10;;;;;;5033444;28;20026;-81
2024/01/29 00:37:26;;;;;;;4.72;3.22;;;4.90;47.10;;;;;;5033606;28;20025;-84
2024/01/29 00:39:52;;;;;;;4.88;3.20;;;4.90;47.50;;;;;;5033656;28;20484;-82
2024/01/29 00:42:18;;;;;;;5.82;3.28;;;4.80;47.00;;;;;;5033398;28;20374;-83
2024/01/29 00:44:44;;;;;;;4.68;3.05;;;4.80;46.90;;;;;;5033627;28;20025;-84
2024/01/29 00:47:10;;;;;;;5.10;2.95;;;4.80;47.00;;;;;;5033470;28;20044;-82
2024/01/29 00:49:36;;;;;;;6.35;3.03;;;4.70;47.10;;;;;;5033131;28;20497;-85
2024/01/29 00:52:04;;;;;;;5.93;3.03;;;4.80;46.90;;;;;;5015764;28;20022;-83
2024/01/29 00:54:30;;;;;;;6.97;2.90;;;4.80;46.70;;;;;;5033188;28;20052;-83
2024/01/29 00:56:55;;;;;;;5.43;3.25;;;4.80;46.70;;;;;;5033211;28;20093;-84
2024/01/29 00:59:21;;;;;;;4.15;2.83;;;4.80;46.40;;;;;;5033528;28;20104;-85
2024/01/29 01:01:46;;;;;;;6.45;3.60;;;4.80;46.70;;;;;;5032933;28;20201;-84
2024/01/29 01:04:12;;;;;;;5.32;3.15;;;4.70;46.70;;;;;;5033233;28;20033;-83
2024/01/29 01:06:37;;;;;;;4.15;2.53;;;4.80;46.90;;;;;;5034021;28;20104;-84
2024/01/29 01:09:03;;;;;;;5.30;2.60;;;4.70;47.00;;;;;;5035983;28;20021;-81
2024/01/29 01:11:29;;;;;;;3.80;2.50;;;4.80;46.60;;;;;;5033449;28;20111;-82
2024/01/29 01:13:54;;;;;;;4.35;2.60;;;4.80;46.70;;;;;;5033127;28;20021;-83
2024/01/29 01:16:20;;;;;;;3.95;2.90;;;4.80;46.60;;;;;;5032889;28;20513;-83
2024/01/29 01:18:45;;;;;;;4.28;2.50;;;4.80;46.50;;;;;;5036447;28;20026;-80
2024/01/29 01:21:11;;;;;;;5.40;3.17;;;4.70;46.80;;;;;;5036672;28;20036;-82
2024/01/29 01:23:38;;;;;;;4.18;2.83;;;4.70;46.70;;;;;;5036715;28;20028;-83
2024/01/29 01:26:04;;;;;;;3.65;2.78;;;4.70;46.80;;;;;;5036699;28;20076;-84
2024/01/29 01:28:29;;;;;;;3.63;2.88;;;4.80;47.60;;;;;;5036644;28;20029;-84
2024/01/29 01:30:55;;;;;;;4.20;2.45;;;4.70;47.10;;;;;;5036507;28;20110;-81
2024/01/29 01:33:20;;;;;;;4.93;2.53;;;4.80;46.00;;;;;;5036538;28;20100;-82
2024/01/29 01:35:46;;;;;;;3.22;1.90;;;4.80;45.80;;;;;;5036756;28;20367;-83
2024/01/29 01:38:11;;;;;;;4.32;2.30;;;4.80;45.80;;;;;;5036409;28;20429;-82
2024/01/29 01:40:37;;;;;;;4.32;2.45;;;4.80;45.90;;;;;;5036344;28;20382;-83
2024/01/29 01:43:20;;;;;;;4.25;2.50;;;4.80;45.90;;;;;;5036306;28;20478;-82
2024/01/29 01:46:07;;;;;;;4.38;2.53;;;4.80;46.10;;;;;;5036292;28;20021;-83
2024/01/29 01:48:36;;;;;;;3.83;2.13;;;4.80;45.20;;;;;;5036183;28;20402;-83
2024/01/29 01:51:03;;;;;;;4.13;1.83;;;4.80;45.10;;;;;;5036193;28;20030;-83
2024/01/29 01:53:32;;;;;;;3.03;1.63;;;4.90;45.10;;;;;;5018608;28;20028;-83
2024/01/29 01:55:59;;;;;;;2.83;1.75;;;4.90;44.60;;;;;;5036168;28;20021;-84
2024/01/29 01:58:27;;;;;;;3.85;2.25;;;5.00;44.70;;;;;;5036253;28;20018;-83
2024/01/29 02:00:52;;;;;;;2.45;1.77;;;5.00;44.30;;;;;;5036552;28;20421;-85
2024/01/29 02:03:18;;;;;;;3.05;1.90;;;5.00;44.40;;;;;;5036320;28;20021;-84
2024/01/29 02:05:45;;;;;;;2.85;1.60;;;5.00;44.30;;;;;;5018763;28;20017;-84
2024/01/29 02:08:12;;;;;;;3.63;1.92;;;5.00;43.80;;;;;;5036342;28;20454;-84
2024/01/29 02:10:38;;;;;;;4.10;2.00;;;5.10;43.80;;;;;;5036130;28;20034;-83
2024/01/29 02:13:10;;;;;;;2.72;1.70;;;5.00;43.60;;;;;;5036297;28;20032;-83
2024/01/29 02:15:36;;;;;;;2.60;1.85;;;5.10;43.70;;;;;;5036434;28;20037;-84
2024/01/29 02:18:01;;;;;;;2.53;1.83;;;5.10;43.70;;;;;;5036581;28;20017;-81
2024/01/29 02:20:27;;;;;;;3.75;2.28;;;5.10;43.90;;;;;;5036433;28;20032;-84
2024/01/29 02:22:52;;;;;;;2.60;1.80;;;5.00;44.20;;;;;;5018821;28;20025;-83
2024/01/29 02:25:18;;;;;;;3.13;2.25;;;5.00;44.30;;;;;;5036880;28;20029;-84
2024/01/29 02:27:43;;;;;;;2.97;2.00;;;5.00;44.70;;;;;;5036344;28;20355;-83
2024/01/29 02:30:10;;;;;;;2.75;1.88;;;4.90;45.10;;;;;;5034995;28;20045;-84
2024/01/29 02:32:35;;;;;;;2.17;1.50;;;4.90;45.30;;;;;;5035959;28;20018;-83
2024/01/29 02:35:01;;;;;;;2.45;1.63;;;4.90;45.10;;;;;;5035924;28;20029;-80
2024/01/29 02:37:26;;;;;;;3.55;1.90;;;4.90;45.10;;;;;;5037826;28;20026;-82
2024/01/29 02:39:52;;;;;;;3.13;1.88;;;4.90;44.80;;;;;;5018278;28;20083;-86
2024/01/29 02:42:18;;;;;;;2.90;1.67;;;4.90;44.60;;;;;;5037693;28;20029;-83
2024/01/29 02:44:47;;;;;;;2.72;1.52;;;5.00;44.70;;;;;;5055472;28;20029;-81
2024/01/29 02:47:14;;;;;;;4.20;1.67;;;5.00;44.80;;;;;;5046326;28;20411;-86
2024/01/29 02:49:40;;;;;;;3.50;1.58;;;5.00;44.40;;;;;;5035247;28;20041;-82
2024/01/29 02:52:06;;;;;;;2.53;1.50;;;5.00;44.70;;;;;;5042127;28;20028;-82
2024/01/29 02:54:32;;;;;;;3.70;1.48;;;4.90;44.40;;;;;;5048015;28;20077;-83
2024/01/29 02:56:57;;;;;;;2.38;1.50;;;5.00;44.10;;;;;;5025464;28;20386;-83
2024/01/29 02:59:22;;;;;;;1.52;1.00;;;5.00;44.30;;;;;;5035320;28;20100;-84
2024/01/29 03:01:48;;;;;;;3.20;1.52;;;5.00;45.40;;;;;;5035372;28;20125;-84
2024/01/29 03:04:14;;;;;;;2.45;1.25;;;4.90;45.60;;;;;;5034893;28;20025;-80
2024/01/29 03:06:39;;;;;;;1.50;1.05;;;4.80;46.40;;;;;;5040802;28;20084;-82
2024/01/29 03:09:05;;;;;;;2.20;1.52;;;4.70;47.00;;;;;;5035011;28;20157;-84
2024/01/29 03:11:30;;;;;;;3.70;1.20;;;4.60;47.20;;;;;;5034751;28;20021;-83
2024/01/29 03:13:57;;;;;;;1.98;1.30;;;4.50;47.90;;;;;;5034617;28;20046;-83
2024/01/29 03:16:22;;;;;;;2.03;1.50;;;4.50;47.20;;;;;;5034705;28;20022;-83
2024/01/29 03:18:48;;;;;;;3.67;1.77;;;4.50;46.10;;;;;;5034573;28;20034;-81
2024/01/29 03:21:14;;;;;;;2.45;1.33;;;4.60;46.00;;;;;;5034580;28;20093;-83
2024/01/29 03:23:39;;;;;;;2.03;1.42;;;4.60;45.80;;;;;;5034606;28;20033;-84
2024/01/29 03:26:05;;;;;;;3.83;1.13;;;4.60;45.80;;;;;;5034486;28;20025;-82
2024/01/29 03:28:30;;;;;;;2.10;1.25;;;4.60;45.70;;;;;;5034568;28;20029;-84
2024/01/29 03:30:56;;;;;;;1.30;1.20;;;4.70;45.20;;;;;;5016629;28;20061;-83
2024/01/29 03:33:21;;;;;;;2.00;1.20;;;4.70;45.50;;;;;;5034517;28;20022;-84
2024/01/29 03:35:47;;;;;;;2.97;1.25;;;4.70;45.40;;;;;;5034591;28;20033;-83
2024/01/29 03:38:12;;;;;;;2.00;1.48;;;4.70;45.20;;;;;;5034099;28;20429;-82
2024/01/29 03:40:38;;;;;;;1.55;1.10;;;4.70;45.30;;;;;;5033931;28;20565;-82
2024/01/29 03:43:03;;;;;;;3.53;1.30;;;4.70;45.20;;;;;;5033993;28;20324;-81
2024/01/29 03:45:29;;;;;;;2.08;1.38;;;4.70;44.60;;;;;;5033943;28;20026;-82
2024/01/29 03:47:54;;;;;;;2.13;1.23;;;4.80;44.00;;;;;;5016255;28;20045;-81
2024/01/29 03:50:20;;;;;;;1.90;1.48;;;4.80;43.70;;;;;;5033726;28;20490;-81
2024/01/29 03:52:47;;;;;;;3.92;1.40;;;4.80;43.90;;;;;;5033777;28;20025;-82
2024/01/29 03:55:13;;;;;;;1.90;1.20;;;4.90;44.10;;;;;;5033755;28;20467;-81
2024/01/29 03:57:39;;;;;;;2.42;1.20;;;4.90;43.70;;;;;;5033676;28;20029;-82
2024/01/29 04:00:09;;;;;;;2.40;1.00;;;4.90;43.30;;;;;;5033569;28;20100;-82
2024/01/29 04:02:34;;;;;;;1.25;0.95;;;5.00;43.20;;;;;;5033584;28;20063;-82
2024/01/29 04:05:00;;;;;;;2.42;1.10;;;4.90;44.60;;;;;;5033503;28;20034;-82
2024/01/29 04:07:27;;;;;;;2.30;1.30;;;4.90;45.30;;;;;;5033450;28;20486;-82
2024/01/29 04:09:52;;;;;;;4.15;1.30;;;4.70;46.20;;;;;;5033330;28;20026;-81
2024/01/29 04:12:18;;;;;;;4.18;1.70;;;4.60;46.80;;;;;;5033510;28;20022;-83
2024/01/29 04:14:43;;;;;;;4.03;1.30;;;4.60;47.30;;;;;;5033602;28;20062;-83
2024/01/29 04:17:10;;;;;;;2.88;1.40;;;4.40;47.00;;;;;;5033579;28;20025;-81
2024/01/29 04:19:36;;;;;;;2.72;1.23;;;4.40;47.20;;;;;;5033621;28;20021;-82
2024/01/29 04:22:02;;;;;;;2.47;1.45;;;4.40;46.20;;;;;;5033498;28;20030;-82
2024/01/29 04:24:28;;;;;;;1.35;0.93;;;4.50;44.40;;;;;;5033362;28;20101;-81
2024/01/29 04:26:54;;;;;;;1.90;0.98;;;4.50;44.90;;;;;;5033357;28;20021;-81
2024/01/29 04:29:20;;;;;;;1.67;1.55;;;4.60;43.70;;;;;;5033346;28;20037;-81
2024/01/29 04:31:45;;;;;;;2.15;0.90;;;4.80;43.50;;;;;;5033297;28;20060;-81
2024/01/29 04:34:11;;;;;;;2.88;1.27;;;4.80;43.20;;;;;;5015765;28;20048;-81
2024/01/29 04:36:36;;;;;;;2.20;1.20;;;4.80;43.70;;;;;;5033193;28;20371;-82
2024/01/29 04:39:03;;;;;;;1.83;1.33;;;4.80;43.70;;;;;;5032994;28;20374;-82
2024/01/29 04:41:28;;;;;;;2.20;1.25;;;4.80;43.50;;;;;;5033112;28;20028;-81
2024/01/29 04:43:54;;;;;;;2.65;1.10;;;4.80;43.80;;;;;;5033013;28;20498;-81
2024/01/29 04:46:19;;;;;;;2.08;1.17;;;4.80;44.00;;;;;;5032985;28;20592;-81
2024/01/29 04:48:45;;;;;;;1.95;1.45;;;4.80;44.10;;;;;;5032734;28;20056;-81
2024/01/29 04:51:11;;;;;;;3.13;1.48;;;4.80;45.10;;;;;;5032841;28;20111;-81
2024/01/29 04:53:38;;;;;;;2.80;1.63;;;4.70;45.60;;;;;;5032483;28;20021;-83
2024/01/29 04:56:04;;;;;;;2.80;2.00;;;4.70;46.00;;;;;;5032797;28;20021;-82
2024/01/29 04:58:30;;;;;;;5.30;2.13;;;4.50;47.50;;;;;;5032654;28;20044;-84
2024/01/29 05:00:56;;;;;;;5.97;2.20;;;4.50;47.40;;;;;;5032986;28;20029;-83
2024/01/29 05:03:21;;;;;;;6.45;2.53;;;4.40;48.40;;;;;;5032792;28;20022;-83
2024/01/29 05:05:47;;;;;;;5.07;2.08;;;4.30;49.10;;;;;;5032836;28;20105;-82
2024/01/29 05:08:13;;;;;;;2.97;1.65;;;4.30;49.00;;;;;;5032882;28;20025;-84
2024/01/29 05:10:39;;;;;;;2.55;1.70;;;4.20;48.50;;;;;;5032793;28;20033;-81
2024/01/29 05:13:05;;;;;;;2.50;1.45;;;4.20;48.40;;;;;;5032717;28;20030;-83
2024/01/29 05:15:30;;;;;;;3.03;1.40;;;4.30;48.10;;;;;;5032772;28;20101;-83
2024/01/29 05:17:56;;;;;;;3.47;1.65;;;4.30;48.10;;;;;;5032668;28;20494;-84
2024/01/29 05:20:22;;;;;;;4.22;2.00;;;4.30;48.10;;;;;;5032703;28;20060;-83
2024/01/29 05:22:47;;;;;;;3.45;1.70;;;4.20;48.80;;;;;;5032757;28;20030;-84
2024/01/29 05:25:13;;;;;;;4.70;2.20;;;4.20;49.00;;;;;;5032676;28;20028;-83
2024/01/29 05:27:38;;;;;;;2.67;1.73;;;4.20;49.20;;;;;;5032592;28;20051;-81
2024/01/29 05:30:05;;;;;;;5.32;2.13;;;4.20;48.70;;;;;;5032522;28;20160;-83
2024/01/29 05:32:31;;;;;;;4.00;2.15;;;4.20;48.50;;;;;;5032904;28;20045;-84
2024/01/29 05:34:57;;;;;;;7.43;3.13;;;4.20;49.20;;;;;;5032914;28;20347;-84
2024/01/29 05:37:22;;;;;;;6.35;3.45;;;4.10;50.50;;;;;;5032611;28;20029;-84
2024/01/29 05:39:48;;;;;;;6.55;3.80;;;4.10;50.90;;;;;;5032462;28;20032;-82
2024/01/29 05:42:13;;;;;;;5.63;2.95;;;4.10;51.50;;;;;;5032714;28;20418;-84
2024/01/29 05:44:39;;;;;;;6.03;3.15;;;4.00;51.60;;;;;;5032837;28;20026;-85
2024/01/29 05:47:05;;;;;;;6.38;2.83;;;4.00;51.70;;;;;;5032695;28;20064;-84
2024/01/29 05:49:30;;;;;;;8.32;2.95;;;4.00;51.90;;;;;;5014804;28;20057;-84
2024/01/29 05:51:56;;;;;;;7.00;3.17;;;3.90;52.40;;;;;;5032894;28;20021;-83
2024/01/29 05:54:21;;;;;;;7.68;3.38;;;3.90;52.00;;;;;;5032791;28;20026;-83
2024/01/29 05:56:47;;;;;;;9.60;4.15;;;3.90;52.30;;;;;;5016893;28;20082;-83
2024/01/29 05:59:13;;;;;;;5.82;2.75;;;3.90;52.40;;;;;;5019501;28;20105;-82
2024/01/29 06:01:39;;;;;;;8.40;3.70;;;3.90;51.60;;;;;;5016492;28;20022;-82
2024/01/29 06:04:04;;;;;;;12.27;4.25;;;3.80;51.90;;;;;;5017207;28;20387;-81
2024/01/29 06:06:30;;;;;;;13.38;5.78;;;3.80;52.00;;;;;;4999744;28;20110;-81
2024/01/29 06:08:55;;;;;;;12.80;5.97;;;3.80;52.00;;;;;;5016218;28;20387;-82
2024/01/29 06:11:21;;;;;;;15.85;8.05;;;3.80;51.90;;;;;;5016792;28;20026;-82
2024/01/29 06:13:47;;;;;;;18.52;8.35;;;3.80;52.30;;;;;;5035826;28;20383;-83
2024/01/29 06:16:19;;;;;;;13.35;7.35;;;3.80;52.60;;;;;;5025983;28;20568;-83
2024/01/29 06:18:45;;;;;;;14.30;6.68;;;3.80;52.80;;;;;;5015950;28;20022;-83
2024/01/29 06:21:10;;;;;;;12.50;6.15;;;3.80;53.30;;;;;;5015969;28;20036;-83
2024/01/29 06:23:36;;;;;;;13.48;5.78;;;3.70;53.40;;;;;;5016137;28;20029;-83
2024/01/29 06:26:03;;;;;;;11.02;5.75;;;3.70;53.50;;;;;;5016595;28;20467;-85
2024/01/29 06:28:28;;;;;;;10.60;4.05;;;3.70;53.60;;;;;;4998371;28;20125;-79
2024/01/29 06:30:54;;;;;;;8.48;4.38;;;3.80;52.40;;;;;;5016006;28;20125;-82
2024/01/29 06:33:20;;;;;;;10.77;4.65;;;3.80;52.40;;;;;;5016425;28;20026;-85
2024/01/29 06:35:45;;;;;;;5.93;2.80;;;3.80;52.60;;;;;;5016014;28;20038;-82
2024/01/29 06:38:11;;;;;;;3.97;2.00;;;3.80;50.40;;;;;;5017373;28;20022;-83
2024/01/29 06:40:36;;;;;;;4.07;1.70;;;3.90;48.60;;;;;;5017890;28;20022;-81
2024/01/29 06:43:02;;;;;;;3.33;2.22;;;4.00;48.30;;;;;;5015586;28;20103;-83
2024/01/29 06:45:28;;;;;;;3.85;2.15;;;4.10;48.80;;;;;;5015554;28;20065;-85
2024/01/29 06:47:55;;;;;;;3.00;1.67;;;4.20;47.50;;;;;;5015705;28;20066;-86
2024/01/29 06:50:20;;;;;;;6.70;2.00;;;4.30;46.90;;;;;;5015520;28;20045;-77
2024/01/29 06:52:47;;;;;;;5.40;2.63;;;4.80;54.40;;;;;;5015348;28;20026;-78
2024/01/29 06:55:12;;;;;;;6.43;3.17;;;5.00;55.60;;;;;;5015002;28;20053;-77
2024/01/29 06:57:38;;;;;;;9.20;2.42;;;5.20;52.00;;;;;;5014933;28;20450;-82
2024/01/29 07:00:05;;;;;;;3.65;2.47;;;5.30;49.50;;;;;;4997595;28;20368;-81
2024/01/29 07:02:30;;;;;;;8.25;4.38;;;5.60;46.90;;;;;;5015109;28;20022;-81
2024/01/29 07:04:56;;;;;;;14.80;7.05;;;5.90;49.80;;;;;;5015144;28;20022;-81
2024/01/29 07:07:21;;;;;;;19.45;9.23;;;6.20;49.60;;;;;;4997436;28;20030;-81
2024/01/29 07:09:47;;;;;;;19.02;8.63;;;6.30;48.20;;;;;;5015192;28;20143;-81
2024/01/29 07:12:15;;;;;;;17.30;7.47;;;6.30;46.80;;;;;;4998664;28;20383;-80
2024/01/29 07:14:41;;;;;;;23.52;11.18;;;6.20;45.60;;;;;;5015235;28;20034;-83
2024/01/29 07:17:06;;;;;;;12.88;6.57;;;6.00;46.40;;;;;;5016370;28;20387;-78
2024/01/29 07:19:33;;;;;;;24.48;8.50;;;5.70;46.30;;;;;;5005406;28;20120;-84
2024/01/29 07:21:59;;;;;;;13.02;5.78;;;5.40;46.90;;;;;;5024703;28;20029;-82
2024/01/29 07:24:25;;;;;;;8.70;4.80;;;5.20;47.50;;;;;;5018089;28;20018;-81
2024/01/29 07:26:51;;;;;;;13.85;6.18;;;5.30;48.50;;;;;;4997109;28;20057;-82
2024/01/29 07:29:17;;;;;;;14.45;5.35;;;5.30;46.80;;;;;;5014609;28;20072;-78
2024/01/29 07:31:42;;;;;;;10.18;5.03;;;5.30;47.30;;;;;;5014521;28;20113;-78
2024/01/29 07:34:08;;;;;;;9.48;4.53;;;5.30;47.80;;;;;;4996764;28;20054;-77
2024/01/29 07:36:37;;;;;;;16.27;3.90;;;5.30;48.50;;;;;;5014355;28;20026;-79
2024/01/29 07:39:03;;;;;;;6.80;3.15;;;5.40;48.10;;;;;;5014345;28;20028;-84
2024/01/29 07:41:29;;;;;;;8.00;4.18;;;5.20;47.60;;;;;;5014216;28;20021;-80
2024/01/29 07:43:55;;;;;;;8.20;3.35;;;5.20;47.40;;;;;;5014187;28;20067;-78
2024/01/29 07:46:21;;;;;;;9.90;3.50;;;5.40;46.70;;;;;;5014412;28;20084;-76
2024/01/29 07:48:47;;;;;;;8.70;4.07;;;5.40;45.00;;;;;;5013946;28;20495;-77
2024/01/29 07:51:12;;;;;;;9.40;4.28;;;5.40;45.80;;;;;;5013911;28;20045;-78
2024/01/29 07:53:38;;;;;;;7.30;3.78;;;5.30;45.80;;;;;;5014393;28;20387;-80
2024/01/29 07:56:03;;;;;;;8.77;4.13;;;5.40;44.30;;;;;;5014203;28;20054;-80
2024/01/29 07:58:29;;;;;;;9.90;3.38;;;5.50;44.60;;;;;;5014394;28;20054;-85
2024/01/29 08:00:54;;;;;;;6.45;3.95;;;5.60;42.70;;;;;;5014582;28;20032;-79
2024/01/29 08:03:20;;;;;;;8.52;4.05;;;5.70;43.90;;;;;;5014596;28;20129;-80
2024/01/29 08:05:46;;;;;;;9.93;4.93;;;5.80;44.30;;;;;;5014183;28;20034;-82
2024/01/29 08:08:11;;;;;;;6.47;3.72;;;5.80;42.60;;;;;;5014180;28;20475;-83
2024/01/29 08:10:37;;;;;;;9.57;4.30;;;5.90;42.10;;;;;;5014081;28;20030;-81
2024/01/29 08:13:02;;;;;;;8.38;4.45;;;6.00;42.20;;;;;;5015265;28;20037;-86
2024/01/29 08:15:29;;;;;;;9.15;4.47;;;6.20;43.10;;;;;;5013716;28;20100;-80
2024/01/29 08:17:55;;;;;;;11.40;5.53;;;6.30;43.60;;;;;;5013947;28;20504;-78
2024/01/29 08:20:22;;;;;;;8.93;4.40;;;6.30;44.50;;;;;;5014058;28;20033;-81
2024/01/29 08:22:47;;;;;;;10.02;4.53;;;6.40;43.10;;;;;;5014036;28;20033;-80
2024/01/29 08:25:13;;;;;;;9.00;4.45;;;6.40;42.50;;;;;;4996504;28;20022;-84
2024/01/29 08:27:39;;;;;;;8.30;3.85;;;6.60;42.10;;;;;;5013708;28;20391;-78
2024/01/29 08:30:05;;;;;;;8.73;4.32;;;6.70;41.60;;;;;;5013631;28;20046;-81
2024/01/29 08:32:30;;;;;;;11.18;5.22;;;6.90;40.90;;;;;;5013623;28;20041;-80
2024/01/29 08:34:56;;;;;;;9.57;4.80;;;7.00;41.90;;;;;;5014531;28;20037;-81
2024/01/29 08:37:21;;;;;;;8.90;5.05;;;7.10;40.40;;;;;;5015588;28;20030;-81
2024/01/29 08:39:47;;;;;;;9.88;5.40;;;7.20;40.40;;;;;;5017497;28;20038;-81
2024/01/29 08:42:13;;;;;;;10.70;5.05;;;7.30;40.20;;;;;;4996181;28;20030;-81
2024/01/29 08:44:38;;;;;;;12.98;6.55;;;7.50;40.00;;;;;;5014095;28;20033;-83
2024/01/29 08:47:04;;;;;;;12.48;6.00;;;7.60;40.80;;;;;;5013972;28;20030;-83
2024/01/29 08:49:29;;;;;;;25.13;13.48;;;7.80;40.10;;;;;;5013814;28;20467;-82
2024/01/29 08:51:55;;;;;;;30.33;15.07;;;7.70;42.40;;;;;;5014196;28;20025;-82
2024/01/29 08:54:20;;;;;;;22.73;13.05;;;7.70;43.10;;;;;;5014168;28;20417;-80
2024/01/29 08:56:48;;;;;;;17.65;9.73;;;7.80;43.20;;;;;;5013709;28;20491;-79
2024/01/29 08:59:15;;;;;;;16.42;7.72;;;7.80;43.20;;;;;;5013879;28;20378;-79
2024/01/29 09:01:41;;;;;;;14.50;7.82;;;7.90;43.20;;;;;;5013481;28;20096;-79
2024/01/29 09:04:06;;;;;;;16.23;8.63;;;7.90;43.70;;;;;;5013586;28;20463;-81
2024/01/29 09:06:32;;;;;;;19.70;10.15;;;7.90;43.80;;;;;;5013918;28;20167;-79
2024/01/29 09:08:57;;;;;;;19.90;9.90;;;8.00;43.70;;;;;;5013692;28;20022;-81
2024/01/29 09:11:23;;;;;;;15.20;8.77;;;8.20;43.60;;;;;;5013571;28;20033;-81
2024/01/29 09:13:48;;;;;;;13.73;7.78;;;8.40;42.40;;;;;;5029361;28;20026;-79
2024/01/29 09:16:14;;;;;;;12.07;7.05;;;8.50;41.30;;;;;;5033082;28;20033;-80
2024/01/29 09:18:39;;;;;;;12.88;6.07;;;8.70;41.50;;;;;;5032729;28;20092;-79
2024/01/29 09:21:07;;;;;;;8.55;5.53;;;9.00;40.70;;;;;;5033276;28;20109;-80
2024/01/29 09:23:33;;;;;;;9.85;4.95;;;9.10;40.40;;;;;;5035838;28;20025;-85
2024/01/29 09:25:58;;;;;;;7.20;4.90;;;9.40;40.20;;;;;;5035846;28;20486;-85
2024/01/29 09:28:24;;;;;;;8.93;4.70;;;9.70;40.20;;;;;;5033829;28;20057;-86
2024/01/29 09:30:49;;;;;;;9.35;4.35;;;10.00;39.60;;;;;;5034133;28;20472;-84
2024/01/29 09:33:19;;;;;;;7.60;4.50;;;10.20;39.70;;;;;;5035850;28;20048;-85
2024/01/29 09:35:48;;;;;;;9.13;4.50;;;10.50;39.20;;;;;;5046114;28;20021;-85
2024/01/29 09:38:14;;;;;;;9.60;4.35;;;10.80;38.70;;;;;;5014438;28;20029;-87
2024/01/29 09:40:44;;;;;;;13.27;5.63;;;11.00;38.60;;;;;;5044435;28;20466;-86
2024/01/29 09:43:11;;;;;;;9.00;5.32;;;11.30;38.40;;;;;;5041894;28;20021;-86
2024/01/29 09:45:37;;;;;;;11.40;5.68;;;11.50;37.10;;;;;;5041322;28;20373;-87
2024/01/29 09:48:04;;;;;;;10.57;6.05;;;11.70;37.00;;;;;;5043165;28;20061;-88
2024/01/29 09:50:31;;;;;;;9.43;6.43;;;12.10;36.30;;;;;;5034897;28;20172;-88
2024/01/29 09:52:59;;;;;;;12.30;6.53;;;12.40;35.30;;;;;;5026907;28;20498;-85
2024/01/29 09:55:27;;;;;;;8.95;5.32;;;12.60;32.50;;;;;;5040193;28;20036;-82
2024/01/29 09:57:52;;;;;;;9.13;5.13;;;12.70;31.50;;;;;;5041950;28;20025;-80
2024/01/29 10:00:18;;;;;;;9.32;5.38;;;12.90;30.70;;;;;;5050998;28;20047;-87
2024/01/29 10:02:45;;;;;;;15.30;5.97;;;13.00;30.60;;;;;;5052752;28;20026;-83
2024/01/29 10:05:11;;;;;;;8.13;5.97;;;13.20;30.60;;;;;;5039184;28;20040;-88
2024/01/29 10:07:38;;;;;;;10.18;5.95;;;13.30;30.50;;;;;;5044935;28;20021;-88
2024/01/29 10:10:10;;;;;;;8.73;5.50;;;13.40;30.20;;;;;;5058980;28;20026;-87
2024/01/29 10:12:36;;;;;;;9.25;6.25;;;13.60;30.00;;;;;;5056201;28;20033;-87
2024/01/29 10:15:02;;;;;;;8.93;5.55;;;13.70;30.20;;;;;;5054630;28;20037;-84
2024/01/29 10:17:29;;;;;;;8.30;5.55;;;13.90;29.80;;;;;;5044195;28;20084;-87
2024/01/29 10:19:54;;;;;;;8.00;5.35;;;14.10;29.50;;;;;;5050863;28;20047;-86
2024/01/29 10:22:26;;;;;;;9.10;4.88;;;14.40;29.80;;;;;;5051548;28;20061;-78
2024/01/29 10:25:02;;;;;;;5.60;4.25;;;14.60;29.20;;;;;;5044045;28;20025;-85
2024/01/29 10:27:28;;;;;;;8.93;5.18;;;14.80;28.60;;;;;;5047963;28;20022;-85
2024/01/29 10:29:53;;;;;;;8.07;3.88;;;14.90;28.40;;;;;;5040147;28;20034;-86
2024/01/29 10:32:23;;;;;;;8.10;4.40;;;15.10;28.20;;;;;;5037870;28;20030;-83
2024/01/29 10:34:49;;;;;;;7.93;3.85;;;15.20;27.80;;;;;;5035961;28;20048;-82
2024/01/29 10:37:16;;;;;;;7.07;4.68;;;15.40;27.80;;;;;;5036333;28;20474;-82
2024/01/29 10:39:42;;;;;;;6.43;4.22;;;15.50;27.30;;;;;;5035514;28;20029;-83
2024/01/29 10:42:12;;;;;;;6.40;4.18;;;15.70;27.10;;;;;;5035705;28;20026;-83
2024/01/29 10:44:39;;;;;;;7.97;4.68;;;15.90;26.60;;;;;;5036156;28;20052;-83
2024/01/29 10:47:09;;;;;;;6.38;4.32;;;16.10;26.60;;;;;;5035418;28;20032;-83
2024/01/29 10:49:36;;;;;;;8.57;4.55;;;16.40;26.50;;;;;;5036219;28;20044;-84
2024/01/29 10:52:04;;;;;;;7.88;4.60;;;16.60;26.40;;;;;;5037022;28;20343;-84
2024/01/29 10:54:32;;;;;;;9.27;4.25;;;16.80;25.70;;;;;;5037016;28;20086;-83
2024/01/29 10:56:58;;;;;;;6.82;4.72;;;17.00;25.90;;;;;;5035592;28;20056;-84
2024/01/29 10:59:25;;;;;;;5.05;4.05;;;17.30;25.00;;;;;;5036042;28;20032;-82
2024/01/29 11:01:52;;;;;;;9.32;3.50;;;17.50;24.60;;;;;;5036106;28;20057;-84
2024/01/29 11:04:19;;;;;;;6.30;3.65;;;17.70;23.90;;;;;;5036090;28;20029;-84
2024/01/29 11:07:00;;;;;;;6.85;3.75;;;18.00;24.00;;;;;;5035881;28;20017;-83
2024/01/29 11:09:27;;;;;;;4.40;3.60;;;18.20;22.80;;;;;;5038225;28;20021;-85
2024/01/29 11:11:54;;;;;;;6.45;3.00;;;18.50;21.50;;;;;;5036823;28;20438;-85
2024/01/29 11:14:21;;;;;;;5.88;3.00;;;18.70;21.00;;;;;;5035663;28;20028;-85
2024/01/29 11:16:47;;;;;;;6.05;2.75;;;18.90;20.10;;;;;;5035761;28;20025;-86
2024/01/29 11:19:13;;;;;;;4.22;2.20;;;19.00;18.70;;;;;;5039873;28;20104;-82
2024/01/29 11:21:51;;;;;;;3.70;2.17;;;19.10;18.40;;;;;;5041192;28;20029;-80
2024/01/29 11:24:21;;;;;;;5.45;2.10;;;19.30;18.10;;;;;;5035456;28;20193;-84
2024/01/29 11:26:47;;;;;;;1.60;1.50;;;19.20;17.20;;;;;;5035857;28;20071;-84
2024/01/29 11:29:17;;;;;;;1.58;1.40;;;19.30;16.10;;;;;;5034942;28;20025;-85
2024/01/29 11:31:45;;;;;;;1.58;1.23;;;19.30;15.40;;;;;;5035153;28;20056;-85
2024/01/29 11:34:15;;;;;;;2.97;1.35;;;19.40;16.20;;;;;;5035026;28;20148;-83
2024/01/29 11:36:40;;;;;;;2.58;1.50;;;19.50;17.20;;;;;;5034508;28;20390;-84
2024/01/29 11:39:08;;;;;;;2.30;1.70;;;19.60;17.40;;;;;;5034576;28;20018;-85
2024/01/29 11:41:35;;;;;;;2.75;1.40;;;19.80;17.80;;;;;;5035807;28;20056;-84
2024/01/29 11:44:02;;;;;;;3.28;1.33;;;20.00;17.10;;;;;;5035125;28;20052;-83
2024/01/29 11:46:28;;;;;;;2.78;1.02;;;20.10;16.40;;;;;;5034081;28;20043;-84
2024/01/29 11:48:58;;;;;;;2.70;1.30;;;20.20;15.60;;;;;;5033781;28;20041;-85
2024/01/29 11:51:30;;;;;;;3.65;1.60;;;20.40;17.10;;;;;;5034800;28;20052;-87
2024/01/29 11:53:55;;;;;;;3.58;1.58;;;20.80;16.70;;;;;;5038844;28;20112;-87
2024/01/29 11:56:21;;;;;;;2.63;1.40;;;21.20;16.60;;;;;;5039673;28;20032;-87
2024/01/29 11:58:59;;;;;;;4.90;1.60;;;21.70;15.60;;;;;;5036028;28;20021;-89
2024/01/29 12:01:24;;;;;;;2.88;2.17;;;21.80;14.40;;;;;;5037191;28;20037;-88
2024/01/29 12:03:50;;;;;;;2.25;2.00;;;22.00;14.80;;;;;;5035306;28;20038;-89
2024/01/29 12:06:16;;;;;;;2.45;1.90;;;22.10;14.30;;;;;;5033865;28;20034;-87
2024/01/29 12:08:47;;;;;;;3.25;1.70;;;22.30;13.90;;;;;;5034050;28;20355;-87
2024/01/29 12:11:14;;;;;;;4.10;1.63;;;22.60;13.90;;;;;;5033778;28;20029;-86
2024/01/29 12:13:40;;;;;;;3.67;1.38;;;22.90;13.60;;;;;;5034059;28;20017;-87
2024/01/29 12:16:07;;;;;;;3.72;1.60;;;23.10;13.60;;;;;;5034132;28;20026;-87
2024/01/29 12:18:33;;;;;;;2.50;1.55;;;23.40;13.40;;;;;;5034203;28;20018;-87
2024/01/29 12:20:59;;;;;;;2.80;1.95;;;23.70;13.80;;;;;;5034694;28;20025;-87
2024/01/29 12:23:25;;;;;;;4.68;3.30;;;23.90;13.30;;;;;;5034015;28;20496;-87
2024/01/29 12:25:55;;;;;;;6.43;2.65;;;23.90;12.30;;;;;;5034113;28;20528;-88
2024/01/29 12:28:22;;;;;;;3.22;1.63;;;23.90;12.90;;;;;;5034287;28;20498;-88
2024/01/29 12:30:58;;;;;;;5.30;2.13;;;24.20;12.50;;;;;;5033830;28;20067;-86
2024/01/29 12:33:28;;;;;;;2.92;1.80;;;24.10;13.30;;;;;;5033498;28;20498;-88
2024/01/29 12:35:58;;;;;;;4.47;2.08;;;24.40;12.70;;;;;;5035007;28;20044;-87
2024/01/29 12:38:24;;;;;;;2.08;1.42;;;24.80;12.20;;;;;;5034125;28;20462;-87
2024/01/29 12:40:57;;;;;;;1.38;1.23;;;25.20;10.70;;;;;;5033034;28;20076;-86
2024/01/29 12:43:29;;;;;;;1.77;1.40;;;25.80;10.50;;;;;;5034079;28;20041;-87
2024/01/29 12:46:13;;;;;;;5.68;2.13;;;26.20;9.40;;;;;;5035572;28;20040;-87
2024/01/29 12:48:42;;;;;;;3.67;2.20;;;26.60;9.70;;;;;;5034745;28;20053;-88